Time;durP1;ratioP1;P1;durP2;ratioP2;P2;SDS_P1;SDS_P2;PMS_P1;PMS_P2;Temp;Humidity;BMP_temperature;BMP_pressure;BME280_temperature;BME280_humidity;BME280_pressure;Samples;Min_cycle;Max_cycle;Signal;HPM_P1;HPM_P2
2023/05/23 00:00:01;;;;;;;4.37;2.80;;;19.20;99.90;;;;;;4200586;28;20323;-76
2023/05/23 00:02:06;;;;;;;4.03;3.00;;;19.20;99.90;;;;;;4202079;28;20304;-77
2023/05/23 00:04:08;;;;;;;5.97;3.20;;;19.10;99.90;;;;;;4203235;28;20213;-76
2023/05/23 00:06:10;;;;;;;5.80;3.17;;;19.10;99.90;;;;;;4200821;28;20202;-76
2023/05/23 00:08:15;;;;;;;3.47;2.63;;;19.10;99.90;;;;;;4203156;28;20765;-76
2023/05/23 00:10:17;;;;;;;3.90;3.10;;;19.10;99.90;;;;;;4202581;28;20259;-76
2023/05/23 00:12:19;;;;;;;6.13;3.30;;;19.00;99.90;;;;;;4204684;28;20678;-76
2023/05/23 00:14:22;;;;;;;4.77;3.10;;;19.10;99.90;;;;;;4203872;28;20222;-76
2023/05/23 00:16:24;;;;;;;6.03;3.20;;;19.00;99.90;;;;;;4205359;28;20218;-76
2023/05/23 00:18:26;;;;;;;4.50;2.73;;;19.00;99.90;;;;;;4207059;28;20266;-76
2023/05/23 00:20:29;;;;;;;5.57;3.30;;;19.00;99.90;;;;;;4202398;28;20231;-76
2023/05/23 00:22:30;;;;;;;8.03;3.53;;;19.00;99.90;;;;;;4205970;28;20265;-76
2023/05/23 00:24:33;;;;;;;4.73;3.50;;;19.00;99.90;;;;;;4199895;28;20266;-77
2023/05/23 00:26:35;;;;;;;4.60;3.30;;;18.90;99.90;;;;;;4207518;28;20205;-76
2023/05/23 00:28:37;;;;;;;5.70;3.23;;;18.90;99.90;;;;;;4205090;28;20241;-76
2023/05/23 00:30:39;;;;;;;3.70;2.93;;;18.90;99.90;;;;;;4198891;28;20216;-77
2023/05/23 00:32:42;;;;;;;4.57;3.10;;;18.90;99.90;;;;;;4205145;28;20215;-76
2023/05/23 00:34:44;;;;;;;5.00;3.27;;;18.80;99.90;;;;;;4203385;28;20907;-76
2023/05/23 00:36:49;;;;;;;5.20;3.47;;;18.80;99.90;;;;;;4204395;28;20282;-76
2023/05/23 00:38:52;;;;;;;4.50;3.27;;;18.80;99.90;;;;;;4202710;28;20585;-76
2023/05/23 00:40:55;;;;;;;4.13;2.93;;;18.80;99.90;;;;;;4206731;28;20303;-76
2023/05/23 00:42:57;;;;;;;4.33;3.40;;;18.70;99.90;;;;;;4204423;28;20211;-76
2023/05/23 00:44:59;;;;;;;7.60;3.77;;;18.70;99.90;;;;;;4201205;28;20303;-77
2023/05/23 00:47:01;;;;;;;5.30;3.80;;;18.70;99.90;;;;;;4201651;28;20733;-76
2023/05/23 00:49:03;;;;;;;4.20;3.37;;;18.70;99.90;;;;;;4203144;28;20268;-77
2023/05/23 00:51:05;;;;;;;5.90;3.70;;;18.70;99.90;;;;;;4204084;28;21192;-76
2023/05/23 00:53:07;;;;;;;6.20;3.77;;;18.60;99.90;;;;;;4201995;28;20298;-76
2023/05/23 00:55:12;;;;;;;4.60;3.60;;;18.60;99.90;;;;;;4204563;28;20644;-76
2023/05/23 00:57:15;;;;;;;5.17;3.17;;;18.60;99.90;;;;;;4205562;28;20255;-76
2023/05/23 00:59:20;;;;;;;7.17;3.83;;;18.60;99.90;;;;;;4201989;28;20221;-76
2023/05/23 01:01:23;;;;;;;4.97;3.60;;;18.60;99.90;;;;;;4200708;28;20603;-76
2023/05/23 01:03:27;;;;;;;6.90;3.93;;;18.60;99.90;;;;;;4200748;28;20754;-76
2023/05/23 01:05:29;;;;;;;5.97;3.80;;;18.50;99.90;;;;;;4202602;28;20204;-77
2023/05/23 01:07:31;;;;;;;5.93;3.70;;;18.50;99.90;;;;;;4199096;28;20266;-76
2023/05/23 01:09:33;;;;;;;5.70;3.60;;;18.40;99.90;;;;;;4199666;28;21046;-76
2023/05/23 01:11:43;;;;;;;6.00;3.60;;;18.40;99.90;;;;;;4203581;28;20239;-76
2023/05/23 01:13:53;;;;;;;5.93;3.77;;;18.30;99.90;;;;;;4200432;28;20212;-76
2023/05/23 01:16:01;;;;;;;4.23;3.07;;;18.30;99.90;;;;;;4202768;28;20201;-76
2023/05/23 01:18:08;;;;;;;7.60;3.57;;;18.30;99.90;;;;;;4202057;28;20842;-76
2023/05/23 01:20:12;;;;;;;5.47;3.70;;;18.20;99.90;;;;;;4203193;28;20774;-76
2023/05/23 01:22:25;;;;;;;7.23;4.07;;;18.20;99.90;;;;;;4200328;28;20599;-76
2023/05/23 01:24:36;;;;;;;7.97;4.40;;;18.20;99.90;;;;;;4203867;28;20200;-76
2023/05/23 01:26:57;;;;;;;6.50;4.03;;;18.20;99.90;;;;;;4202005;28;20220;-76
2023/05/23 01:29:09;;;;;;;5.53;3.97;;;18.20;99.90;;;;;;4203441;28;20326;-76
2023/05/23 01:31:12;;;;;;;5.97;3.73;;;18.10;99.90;;;;;;4198902;28;21119;-76
2023/05/23 01:33:16;;;;;;;5.93;3.93;;;18.10;99.90;;;;;;4199515;28;20610;-76
2023/05/23 01:35:25;;;;;;;7.77;3.83;;;18.10;99.90;;;;;;4200684;28;20588;-76
2023/05/23 01:37:28;;;;;;;6.17;4.30;;;18.00;99.90;;;;;;4200696;28;20589;-76
2023/05/23 01:39:30;;;;;;;9.33;4.33;;;17.90;99.90;;;;;;4201609;28;20573;-76
2023/05/23 01:41:32;;;;;;;6.73;4.40;;;17.90;99.90;;;;;;4200001;28;20307;-76
2023/05/23 01:43:34;;;;;;;7.17;4.37;;;17.80;99.90;;;;;;4203414;28;20830;-76
2023/05/23 01:45:37;;;;;;;5.50;4.10;;;17.70;99.90;;;;;;4200474;28;20243;-76
2023/05/23 01:47:41;;;;;;;6.57;4.40;;;17.70;99.90;;;;;;4204047;28;20884;-76
2023/05/23 01:49:44;;;;;;;7.43;5.10;;;17.60;99.90;;;;;;4202787;28;20232;-76
2023/05/23 01:51:46;;;;;;;9.23;4.83;;;17.60;99.90;;;;;;4197412;28;20217;-76
2023/05/23 01:53:48;;;;;;;7.23;5.33;;;17.50;99.90;;;;;;4199180;28;20208;-76
2023/05/23 01:55:51;;;;;;;6.10;4.67;;;17.50;99.90;;;;;;4201479;28;20238;-76
2023/05/23 01:57:55;;;;;;;6.90;4.73;;;17.40;99.90;;;;;;4200883;28;20217;-76
2023/05/23 01:59:57;;;;;;;8.40;5.53;;;17.40;99.90;;;;;;4204144;28;20327;-76
2023/05/23 02:02:01;;;;;;;8.07;5.13;;;17.30;99.90;;;;;;4203069;28;20230;-76
2023/05/23 02:04:04;;;;;;;7.73;4.97;;;17.30;99.90;;;;;;4197312;28;20314;-76
2023/05/23 02:06:06;;;;;;;9.27;5.77;;;17.30;99.90;;;;;;4202440;28;20207;-76
2023/05/23 02:08:08;;;;;;;8.07;5.77;;;17.20;99.90;;;;;;4206486;28;20303;-76
2023/05/23 02:10:10;;;;;;;8.70;5.90;;;17.20;99.90;;;;;;4200116;28;20273;-76
2023/05/23 02:12:11;;;;;;;9.47;5.73;;;17.20;99.90;;;;;;4201116;28;20302;-76
2023/05/23 02:14:13;;;;;;;10.80;5.90;;;17.20;99.90;;;;;;4201750;28;20233;-76
2023/05/23 02:16:15;;;;;;;7.83;4.93;;;17.10;99.90;;;;;;4200763;28;20315;-76
2023/05/23 02:18:18;;;;;;;8.17;5.77;;;17.10;99.90;;;;;;4202765;28;20209;-76
2023/05/23 02:20:20;;;;;;;8.20;5.80;;;17.10;99.90;;;;;;4198933;28;20204;-76
2023/05/23 02:22:24;;;;;;;7.43;5.43;;;17.10;99.90;;;;;;4202029;28;20299;-76
2023/05/23 02:24:26;;;;;;;6.97;5.33;;;17.10;99.90;;;;;;4203293;28;20203;-76
2023/05/23 02:26:28;;;;;;;10.27;6.30;;;17.10;99.90;;;;;;4201319;28;20215;-76
2023/05/23 02:28:30;;;;;;;9.60;5.90;;;17.00;99.90;;;;;;4204315;28;20325;-76
2023/05/23 02:30:32;;;;;;;8.77;5.80;;;17.00;99.90;;;;;;4200816;28;20210;-76
2023/05/23 02:32:33;;;;;;;8.43;5.87;;;17.00;99.90;;;;;;4201632;28;20210;-76
2023/05/23 02:34:37;;;;;;;10.83;6.63;;;17.00;99.90;;;;;;4202036;28;20202;-76
2023/05/23 02:36:39;;;;;;;10.10;7.23;;;17.00;99.90;;;;;;4200369;28;20222;-76
2023/05/23 02:38:41;;;;;;;8.40;6.33;;;17.00;99.90;;;;;;4205986;28;20332;-75
2023/05/23 02:40:43;;;;;;;8.30;6.07;;;17.00;99.90;;;;;;4199455;28;20273;-76
2023/05/23 02:42:44;;;;;;;9.50;7.20;;;17.00;99.90;;;;;;4202515;28;20313;-76
2023/05/23 02:44:46;;;;;;;13.37;7.90;;;17.00;99.90;;;;;;4206405;28;20302;-76
2023/05/23 02:46:48;;;;;;;10.13;7.90;;;16.90;99.90;;;;;;4204457;28;20716;-75
2023/05/23 02:48:50;;;;;;;11.83;8.03;;;17.00;99.90;;;;;;4205521;28;20874;-75
2023/05/23 02:50:53;;;;;;;12.70;7.87;;;16.90;99.90;;;;;;4206457;28;20300;-76
2023/05/23 02:52:55;;;;;;;10.07;7.80;;;16.90;99.90;;;;;;4203852;28;20216;-76
2023/05/23 02:54:57;;;;;;;13.67;8.60;;;16.90;99.90;;;;;;4202981;28;20213;-76
2023/05/23 02:57:00;;;;;;;10.60;7.77;;;16.90;99.90;;;;;;4205835;28;20318;-76
2023/05/23 02:59:02;;;;;;;11.33;8.47;;;16.90;99.90;;;;;;4207559;28;20278;-76
2023/05/23 03:01:04;;;;;;;11.83;8.83;;;16.90;99.90;;;;;;4205599;28;20246;-76
2023/05/23 03:03:06;;;;;;;13.93;8.80;;;16.90;99.90;;;;;;4201372;28;20212;-76
2023/05/23 03:05:08;;;;;;;13.17;8.60;;;16.90;99.90;;;;;;4205796;28;20215;-76
2023/05/23 03:07:13;;;;;;;13.53;9.03;;;16.90;99.90;;;;;;4204828;28;20209;-76
2023/05/23 03:09:16;;;;;;;9.97;7.80;;;16.90;99.90;;;;;;4204908;28;20230;-76
2023/05/23 03:11:18;;;;;;;15.47;9.30;;;16.90;99.90;;;;;;4204626;28;20210;-76
2023/05/23 03:13:20;;;;;;;13.90;9.13;;;16.80;99.90;;;;;;4205163;28;20293;-76
2023/05/23 03:15:22;;;;;;;13.67;9.40;;;16.90;99.90;;;;;;4203892;28;20299;-76
2023/05/23 03:17:25;;;;;;;14.10;9.23;;;16.80;99.90;;;;;;4207337;28;20301;-76
2023/05/23 03:19:27;;;;;;;15.07;9.07;;;16.80;99.90;;;;;;4203839;28;20727;-76
2023/05/23 03:21:30;;;;;;;12.00;8.67;;;16.80;99.90;;;;;;4205816;28;20202;-76
2023/05/23 03:23:33;;;;;;;12.30;8.87;;;16.80;99.90;;;;;;4209277;28;20789;-76
2023/05/23 03:25:36;;;;;;;12.53;9.00;;;16.80;99.90;;;;;;4205204;28;20307;-76
2023/05/23 03:27:40;;;;;;;14.37;10.57;;;16.80;99.90;;;;;;4204868;28;20218;-76
2023/05/23 03:29:44;;;;;;;16.67;9.57;;;16.70;99.90;;;;;;4205277;28;20231;-76
2023/05/23 03:31:46;;;;;;;13.23;10.23;;;16.70;99.90;;;;;;4207212;28;20956;-76
2023/05/23 03:33:48;;;;;;;15.03;9.83;;;16.70;99.90;;;;;;4207276;28;20699;-76
2023/05/23 03:35:50;;;;;;;12.50;9.70;;;16.70;99.90;;;;;;4206995;28;20660;-80
2023/05/23 03:37:52;;;;;;;15.50;9.67;;;16.70;99.90;;;;;;4208864;28;20221;-78
2023/05/23 03:39:55;;;;;;;14.53;9.50;;;16.70;99.90;;;;;;4210442;28;20236;-76
2023/05/23 03:41:57;;;;;;;14.57;10.37;;;16.70;99.90;;;;;;4206802;28;20214;-76
2023/05/23 03:43:59;;;;;;;16.63;9.77;;;16.70;99.90;;;;;;4207258;28;20249;-76
2023/05/23 03:46:01;;;;;;;12.80;10.10;;;16.70;99.90;;;;;;4205414;28;20210;-77
2023/05/23 03:48:03;;;;;;;13.03;9.73;;;16.70;99.90;;;;;;4203222;28;20225;-75
2023/05/23 03:50:06;;;;;;;15.77;10.97;;;16.70;99.90;;;;;;4205538;28;20224;-75
2023/05/23 03:52:08;;;;;;;13.97;10.17;;;16.70;99.90;;;;;;4207635;28;20198;-76
2023/05/23 03:54:10;;;;;;;14.93;10.17;;;16.70;99.90;;;;;;4204266;28;20801;-75
2023/05/23 03:56:15;;;;;;;15.33;11.37;;;16.70;99.90;;;;;;4207121;28;20265;-76
2023/05/23 03:58:17;;;;;;;13.40;10.07;;;16.70;99.90;;;;;;4203698;28;20209;-76
2023/05/23 04:00:19;;;;;;;16.47;11.43;;;16.60;99.90;;;;;;4206818;28;20227;-76
2023/05/23 04:02:21;;;;;;;13.43;10.50;;;16.60;99.90;;;;;;4204065;28;20210;-77
2023/05/23 04:04:23;;;;;;;15.30;10.30;;;16.60;99.90;;;;;;4204173;28;20306;-77
2023/05/23 04:06:26;;;;;;;14.57;10.13;;;16.60;99.90;;;;;;4203720;28;20211;-77
2023/05/23 04:08:32;;;;;;;18.07;11.13;;;16.50;99.90;;;;;;4205049;28;20333;-80
2023/05/23 04:10:34;;;;;;;15.33;10.23;;;16.60;99.90;;;;;;4210958;28;20282;-78
2023/05/23 04:12:40;;;;;;;15.67;10.90;;;16.50;99.90;;;;;;4210878;28;20251;-78
2023/05/23 04:14:42;;;;;;;12.70;9.87;;;16.50;99.90;;;;;;4207790;28;20346;-78
2023/05/23 04:16:44;;;;;;;14.77;10.53;;;16.50;99.90;;;;;;4206605;28;20245;-77
2023/05/23 04:18:47;;;;;;;13.87;10.30;;;16.50;99.90;;;;;;4207120;28;20746;-77
2023/05/23 04:20:49;;;;;;;14.60;10.17;;;16.50;99.90;;;;;;4204081;28;20242;-77
2023/05/23 04:22:51;;;;;;;13.80;10.63;;;16.40;99.90;;;;;;4205870;28;20873;-77
2023/05/23 04:24:53;;;;;;;14.83;10.43;;;16.40;99.90;;;;;;4208353;28;20284;-77
2023/05/23 04:26:56;;;;;;;14.17;10.20;;;16.40;99.90;;;;;;4207379;28;20236;-77
2023/05/23 04:28:59;;;;;;;15.83;10.80;;;16.40;99.90;;;;;;4204022;28;20698;-77
2023/05/23 04:31:02;;;;;;;15.80;11.63;;;16.30;99.90;;;;;;4204349;28;20228;-77
2023/05/23 04:33:05;;;;;;;15.73;10.50;;;16.30;99.90;;;;;;4208685;28;20293;-77
2023/05/23 04:35:07;;;;;;;15.87;10.50;;;16.30;99.90;;;;;;4205102;28;20229;-77
2023/05/23 04:37:10;;;;;;;15.40;10.70;;;16.30;99.90;;;;;;4207152;28;20205;-77
2023/05/23 04:39:12;;;;;;;16.40;10.63;;;16.30;99.90;;;;;;4204982;28;20221;-77
2023/05/23 04:41:15;;;;;;;13.67;10.20;;;16.30;99.90;;;;;;4206445;28;20255;-77
2023/05/23 04:43:18;;;;;;;14.27;10.27;;;16.30;99.90;;;;;;4203210;28;20214;-77
2023/05/23 04:45:22;;;;;;;15.07;10.80;;;16.30;99.90;;;;;;4207189;28;20208;-77
2023/05/23 04:47:27;;;;;;;15.20;10.57;;;16.30;99.90;;;;;;4206675;28;20970;-77
2023/05/23 04:49:29;;;;;;;15.53;10.50;;;16.30;99.90;;;;;;4206598;28;20288;-77
2023/05/23 04:51:32;;;;;;;18.20;11.67;;;16.20;99.90;;;;;;4203657;28;20703;-77
2023/05/23 04:53:35;;;;;;;17.53;12.13;;;16.20;99.90;;;;;;4204156;28;20218;-77
2023/05/23 04:55:37;;;;;;;17.87;10.90;;;16.20;99.90;;;;;;4203845;28;20229;-77
2023/05/23 04:57:39;;;;;;;15.57;11.47;;;16.30;99.90;;;;;;4203710;28;20270;-77
2023/05/23 04:59:41;;;;;;;14.40;10.60;;;16.20;99.90;;;;;;4202296;28;20648;-77
2023/05/23 05:01:45;;;;;;;15.23;10.40;;;16.20;99.90;;;;;;4208027;28;20212;-77
2023/05/23 05:03:47;;;;;;;15.40;11.20;;;16.30;99.90;;;;;;4203337;28;20206;-76
2023/05/23 05:05:49;;;;;;;16.37;10.90;;;16.30;99.90;;;;;;4202992;28;20213;-78
2023/05/23 05:07:50;;;;;;;16.20;10.40;;;16.30;99.90;;;;;;4201669;28;20260;-77
2023/05/23 05:09:52;;;;;;;14.07;10.00;;;16.30;99.90;;;;;;4203633;28;20332;-77
2023/05/23 05:11:54;;;;;;;16.37;10.73;;;16.30;99.90;;;;;;4203538;28;21032;-76
2023/05/23 05:13:56;;;;;;;15.97;9.67;;;16.30;99.90;;;;;;4204221;28;20209;-76
2023/05/23 05:15:58;;;;;;;14.73;10.83;;;16.40;99.90;;;;;;4211626;28;20205;-76
2023/05/23 05:18:01;;;;;;;12.97;9.70;;;16.30;99.90;;;;;;4210947;28;20295;-76
2023/05/23 05:20:07;;;;;;;15.07;9.70;;;16.40;99.90;;;;;;4210881;28;20762;-76
2023/05/23 05:22:09;;;;;;;19.00;11.07;;;16.40;99.90;;;;;;4201983;28;20208;-77
2023/05/23 05:24:11;;;;;;;15.67;10.83;;;16.50;99.90;;;;;;4201535;28;20305;-77
2023/05/23 05:26:13;;;;;;;17.47;11.27;;;16.50;99.90;;;;;;4202859;28;20206;-77
2023/05/23 05:28:15;;;;;;;14.00;10.30;;;16.60;99.90;;;;;;4206633;28;20208;-77
2023/05/23 05:30:17;;;;;;;13.17;9.93;;;16.60;99.90;;;;;;4202532;28;20262;-77
2023/05/23 05:32:19;;;;;;;17.37;11.20;;;16.70;99.90;;;;;;4205045;28;20296;-77
2023/05/23 05:34:22;;;;;;;16.97;11.30;;;16.80;99.90;;;;;;4204193;28;20237;-78
2023/05/23 05:36:24;;;;;;;13.83;10.13;;;16.80;99.90;;;;;;4204297;28;20295;-77
2023/05/23 05:38:26;;;;;;;17.70;11.07;;;16.80;99.90;;;;;;4202397;28;20206;-77
2023/05/23 05:40:28;;;;;;;17.00;11.20;;;17.00;99.90;;;;;;4204580;28;20202;-77
2023/05/23 05:42:30;;;;;;;22.40;12.87;;;17.00;99.90;;;;;;4203792;28;20229;-77
2023/05/23 05:44:32;;;;;;;15.60;10.60;;;17.00;99.90;;;;;;4197201;28;20234;-77
2023/05/23 05:46:34;;;;;;;18.63;12.60;;;17.00;99.90;;;;;;4202176;28;20703;-78
2023/05/23 05:48:36;;;;;;;18.17;11.73;;;17.10;99.90;;;;;;4202407;28;20270;-77
2023/05/23 05:50:40;;;;;;;18.60;12.50;;;17.10;99.90;;;;;;4201461;28;20326;-77
2023/05/23 05:52:42;;;;;;;18.13;12.43;;;17.10;99.90;;;;;;4204721;28;20221;-77
2023/05/23 05:54:44;;;;;;;19.23;12.73;;;17.10;99.90;;;;;;4202598;28;20332;-76
2023/05/23 05:56:47;;;;;;;22.23;14.53;;;17.10;99.90;;;;;;4205087;28;21044;-77
2023/05/23 05:58:52;;;;;;;25.40;16.40;;;17.10;99.90;;;;;;4204661;28;20218;-77
2023/05/23 06:00:55;;;;;;;23.83;15.90;;;17.20;99.90;;;;;;4199680;28;20227;-77
2023/05/23 06:02:57;;;;;;;21.17;15.70;;;17.10;99.90;;;;;;4202765;28;20220;-77
2023/05/23 06:04:59;;;;;;;24.20;16.33;;;17.20;99.90;;;;;;4203101;28;20819;-77
2023/05/23 06:07:02;;;;;;;23.13;16.47;;;17.20;99.90;;;;;;4200747;28;20807;-77
2023/05/23 06:09:04;;;;;;;24.30;16.60;;;17.30;99.90;;;;;;4199611;28;20232;-76
2023/05/23 06:11:09;;;;;;;22.03;15.87;;;17.30;99.90;;;;;;4205338;28;20844;-78
2023/05/23 06:13:10;;;;;;;19.90;14.83;;;17.40;99.90;;;;;;4208442;28;20241;-76
2023/05/23 06:15:15;;;;;;;23.30;15.57;;;17.40;99.90;;;;;;4208041;28;20245;-76
2023/05/23 06:17:17;;;;;;;27.50;15.47;;;17.40;99.90;;;;;;4206098;28;20223;-77
2023/05/23 06:19:19;;;;;;;24.77;15.47;;;17.40;99.90;;;;;;4199787;28;20278;-76
2023/05/23 06:21:21;;;;;;;21.93;15.00;;;17.40;99.90;;;;;;4207616;28;20206;-76
2023/05/23 06:23:24;;;;;;;19.43;14.50;;;17.40;99.90;;;;;;4200643;28;20208;-76
2023/05/23 06:25:31;;;;;;;20.63;14.63;;;17.30;99.90;;;;;;4204855;28;20217;-76
2023/05/23 06:27:33;;;;;;;19.93;14.13;;;17.30;99.90;;;;;;4206398;28;20216;-76
2023/05/23 06:29:38;;;;;;;26.73;16.67;;;17.40;99.90;;;;;;4206249;28;20235;-76
2023/05/23 06:31:42;;;;;;;25.10;15.90;;;17.30;99.90;;;;;;4199643;28;20947;-77
2023/05/23 06:33:44;;;;;;;21.63;14.77;;;17.30;99.90;;;;;;4202821;28;20210;-78
2023/05/23 06:35:46;;;;;;;27.63;16.93;;;17.30;99.90;;;;;;4203112;28;20225;-77
2023/05/23 06:37:47;;;;;;;28.83;17.57;;;17.20;99.90;;;;;;4199085;28;20248;-77
2023/05/23 06:39:51;;;;;;;25.13;16.20;;;17.20;99.90;;;;;;4201780;28;20244;-77
2023/05/23 06:41:54;;;;;;;31.00;17.63;;;17.10;99.90;;;;;;4199217;28;20217;-77
2023/05/23 06:43:56;;;;;;;26.13;17.50;;;17.10;99.90;;;;;;4197665;28;20216;-77
2023/05/23 06:45:58;;;;;;;26.50;16.87;;;17.10;99.90;;;;;;4205266;28;20214;-78
2023/05/23 06:48:00;;;;;;;27.17;16.40;;;17.10;99.90;;;;;;4203931;28;20285;-77
2023/05/23 06:50:05;;;;;;;27.50;14.67;;;17.00;99.90;;;;;;4206369;28;20754;-77
2023/05/23 06:52:07;;;;;;;25.53;14.67;;;16.90;99.90;;;;;;4203262;28;20698;-76
2023/05/23 06:54:09;;;;;;;21.37;12.23;;;16.80;99.90;;;;;;4210033;28;20239;-79
2023/05/23 06:56:12;;;;;;;22.30;11.37;;;16.80;99.90;;;;;;4204812;28;20229;-79
2023/05/23 06:58:14;;;;;;;18.30;11.07;;;16.70;99.90;;;;;;4203145;28;20231;-74
2023/05/23 07:00:18;;;;;;;19.57;10.60;;;16.70;99.90;;;;;;4197762;28;20237;-75
2023/05/23 07:02:20;;;;;;;16.07;9.53;;;16.60;99.90;;;;;;4211658;28;20225;-74
2023/05/23 07:04:22;;;;;;;19.10;10.70;;;16.60;99.90;;;;;;4201981;28;20224;-75
2023/05/23 07:06:26;;;;;;;17.63;10.70;;;16.50;99.90;;;;;;4201133;28;20271;-74
2023/05/23 07:08:28;;;;;;;15.93;9.30;;;16.50;99.90;;;;;;4201535;28;20215;-74
2023/05/23 07:10:32;;;;;;;16.30;9.23;;;16.50;99.90;;;;;;4204075;28;20233;-74
2023/05/23 07:12:35;;;;;;;14.60;8.30;;;16.50;99.90;;;;;;4204244;28;20209;-74
2023/05/23 07:14:37;;;;;;;15.67;9.33;;;16.50;99.90;;;;;;4205759;28;20198;-75
2023/05/23 07:16:39;;;;;;;14.87;8.10;;;16.50;99.90;;;;;;4209919;28;20685;-74
2023/05/23 07:18:41;;;;;;;13.93;8.00;;;16.50;99.90;;;;;;4206239;28;20246;-74
2023/05/23 07:20:43;;;;;;;11.77;8.07;;;16.60;99.90;;;;;;4210642;28;20214;-74
2023/05/23 07:22:47;;;;;;;12.33;8.10;;;16.60;99.90;;;;;;4206500;28;20233;-74
2023/05/23 07:24:49;;;;;;;12.80;8.10;;;16.60;99.90;;;;;;4208557;28;20701;-75
2023/05/23 07:26:51;;;;;;;11.00;7.13;;;16.70;99.90;;;;;;4207258;28;20227;-75
2023/05/23 07:28:55;;;;;;;13.23;7.90;;;16.70;99.90;;;;;;4204643;28;20291;-75
2023/05/23 07:30:57;;;;;;;13.17;7.13;;;16.80;99.90;;;;;;4208433;28;20237;-74
2023/05/23 07:32:59;;;;;;;11.30;6.90;;;16.80;99.90;;;;;;4208060;28;20209;-75
2023/05/23 07:35:01;;;;;;;12.20;7.73;;;16.80;99.90;;;;;;4207412;28;21133;-75
2023/05/23 07:37:03;;;;;;;10.27;7.00;;;16.80;99.90;;;;;;4201713;28;20253;-76
2023/05/23 07:39:05;;;;;;;12.47;7.67;;;16.90;99.90;;;;;;4204973;28;20230;-75
2023/05/23 07:41:09;;;;;;;12.43;7.13;;;16.90;99.90;;;;;;4206092;28;20249;-75
2023/05/23 07:43:12;;;;;;;10.20;6.97;;;16.90;99.90;;;;;;4206549;28;20242;-75
2023/05/23 07:45:15;;;;;;;10.60;6.97;;;17.00;99.90;;;;;;4203723;28;20584;-75
2023/05/23 07:47:20;;;;;;;11.33;7.03;;;17.00;99.90;;;;;;4208335;28;21071;-75
2023/05/23 07:49:22;;;;;;;11.87;7.47;;;17.00;99.90;;;;;;4201539;28;20231;-75
2023/05/23 07:51:24;;;;;;;10.37;6.63;;;17.00;99.90;;;;;;4204587;28;20237;-75
2023/05/23 07:53:26;;;;;;;10.20;6.60;;;17.00;99.90;;;;;;4202212;28;20301;-75
2023/05/23 07:55:28;;;;;;;10.93;6.60;;;17.00;99.90;;;;;;4204577;28;20245;-76
2023/05/23 07:57:30;;;;;;;11.93;6.63;;;17.00;99.90;;;;;;4205039;28;20686;-75
2023/05/23 07:59:34;;;;;;;11.83;7.20;;;17.00;99.90;;;;;;4200723;28;20601;-75
2023/05/23 08:01:39;;;;;;;13.83;7.07;;;17.00;99.90;;;;;;4204610;28;20200;-75
2023/05/23 08:03:41;;;;;;;11.37;7.33;;;17.10;99.90;;;;;;4203044;28;20229;-74
2023/05/23 08:05:46;;;;;;;10.40;6.60;;;17.10;99.90;;;;;;4203154;28;20211;-75
2023/05/23 08:07:48;;;;;;;8.97;6.10;;;17.10;99.90;;;;;;4203534;28;20657;-75
2023/05/23 08:09:50;;;;;;;7.53;5.60;;;17.10;99.90;;;;;;4200877;28;20275;-74
2023/05/23 08:11:53;;;;;;;9.83;6.00;;;17.10;99.90;;;;;;4201454;28;20669;-75
2023/05/23 08:13:55;;;;;;;8.73;5.60;;;17.10;99.90;;;;;;4207438;28;20296;-75
2023/05/23 08:15:57;;;;;;;8.60;5.73;;;17.10;99.90;;;;;;4203462;28;20217;-75
2023/05/23 08:18:00;;;;;;;9.10;5.83;;;17.10;99.90;;;;;;4203743;28;20244;-75
2023/05/23 08:20:03;;;;;;;8.70;6.20;;;17.10;99.90;;;;;;4202356;28;20718;-75
2023/05/23 08:22:07;;;;;;;9.30;5.90;;;17.20;99.90;;;;;;4201094;28;20206;-75
2023/05/23 08:24:09;;;;;;;10.27;6.47;;;17.20;99.90;;;;;;4203599;28;20274;-75
2023/05/23 08:26:11;;;;;;;9.40;5.80;;;17.20;99.90;;;;;;4204914;28;20660;-75
2023/05/23 08:28:13;;;;;;;8.57;5.60;;;17.20;99.90;;;;;;4200870;28;20248;-75
2023/05/23 08:30:15;;;;;;;9.03;6.53;;;17.20;99.90;;;;;;4201861;28;20259;-75
2023/05/23 08:32:17;;;;;;;9.07;6.17;;;17.20;99.90;;;;;;4204726;28;20229;-75
2023/05/23 08:34:20;;;;;;;8.13;6.13;;;17.20;99.90;;;;;;4200741;28;20222;-75
2023/05/23 08:36:25;;;;;;;8.67;6.30;;;17.20;99.90;;;;;;4203601;28;20257;-75
2023/05/23 08:38:27;;;;;;;10.93;6.63;;;17.20;99.90;;;;;;4203921;28;20704;-75
2023/05/23 08:40:34;;;;;;;9.43;5.43;;;17.20;99.90;;;;;;4203275;28;20212;-75
2023/05/23 08:42:36;;;;;;;8.13;5.73;;;17.20;99.90;;;;;;4203474;28;20622;-75
2023/05/23 08:44:39;;;;;;;8.27;5.97;;;17.20;99.90;;;;;;4205848;28;20246;-75
2023/05/23 08:46:45;;;;;;;8.57;6.40;;;17.30;99.90;;;;;;4205240;28;20221;-75
2023/05/23 08:48:53;;;;;;;10.33;5.93;;;17.30;99.90;;;;;;4202521;28;20735;-75
2023/05/23 08:50:58;;;;;;;8.77;6.10;;;17.40;99.90;;;;;;4201459;28;20825;-76
2023/05/23 08:53:01;;;;;;;10.70;7.13;;;17.50;99.90;;;;;;4198368;28;20645;-75
2023/05/23 08:55:03;;;;;;;8.17;6.00;;;17.60;99.90;;;;;;4201782;28;21033;-76
2023/05/23 08:57:05;;;;;;;10.67;6.80;;;17.50;99.90;;;;;;4203415;28;20215;-74
2023/05/23 08:59:09;;;;;;;10.80;7.47;;;17.60;99.90;;;;;;4200389;28;20862;-74
2023/05/23 09:01:12;;;;;;;7.97;5.60;;;17.60;99.90;;;;;;4201231;28;20210;-74
2023/05/23 09:03:14;;;;;;;10.10;5.90;;;17.70;99.90;;;;;;4201133;28;20216;-74
2023/05/23 09:05:16;;;;;;;8.67;5.60;;;17.70;99.90;;;;;;4201917;28;20205;-74
2023/05/23 09:07:22;;;;;;;10.67;6.57;;;17.80;99.90;;;;;;4203719;28;20236;-74
2023/05/23 09:09:25;;;;;;;9.43;6.40;;;17.90;99.90;;;;;;4200313;28;21094;-74
2023/05/23 09:11:27;;;;;;;8.17;6.00;;;17.90;99.90;;;;;;4201746;28;20224;-74
2023/05/23 09:13:30;;;;;;;11.43;6.67;;;17.90;99.90;;;;;;4202717;28;20216;-74
2023/05/23 09:15:31;;;;;;;11.03;6.77;;;17.90;99.90;;;;;;4205064;28;20270;-75
2023/05/23 09:17:33;;;;;;;12.07;7.53;;;17.90;99.90;;;;;;4202000;28;20221;-74
2023/05/23 09:19:41;;;;;;;11.40;7.40;;;17.80;99.90;;;;;;4204445;28;20231;-75
2023/05/23 09:21:44;;;;;;;12.70;7.67;;;17.90;99.90;;;;;;4201946;28;20273;-75
2023/05/23 09:23:50;;;;;;;11.63;7.80;;;17.80;99.90;;;;;;4202275;28;20239;-74
2023/05/23 09:25:54;;;;;;;12.13;7.50;;;17.70;99.90;;;;;;4200335;28;20211;-74
2023/05/23 09:28:00;;;;;;;12.13;7.67;;;17.70;99.90;;;;;;4199156;28;20208;-74
2023/05/23 09:30:06;;;;;;;13.27;7.53;;;17.60;99.90;;;;;;4201147;28;20322;-76
2023/05/23 09:32:12;;;;;;;12.23;6.80;;;17.50;99.90;;;;;;4202517;28;20220;-74
2023/05/23 09:34:16;;;;;;;11.07;7.53;;;17.60;99.90;;;;;;4203594;28;20796;-75
2023/05/23 09:36:19;;;;;;;12.17;6.97;;;17.50;99.90;;;;;;4203659;28;20666;-75
2023/05/23 09:38:21;;;;;;;12.13;6.93;;;17.40;99.90;;;;;;4201044;28;20306;-74
2023/05/23 09:40:29;;;;;;;10.93;7.40;;;17.40;99.90;;;;;;4204582;28;20947;-74
2023/05/23 09:42:33;;;;;;;10.00;7.50;;;17.40;99.90;;;;;;4202227;28;20209;-75
2023/05/23 09:44:42;;;;;;;13.03;7.67;;;17.40;99.90;;;;;;4202018;28;20238;-75
2023/05/23 09:46:43;;;;;;;12.30;7.97;;;17.40;99.90;;;;;;4202189;28;20218;-74
2023/05/23 09:48:47;;;;;;;13.97;8.13;;;17.30;99.90;;;;;;4200730;28;20227;-75
2023/05/23 09:50:50;;;;;;;12.30;8.10;;;17.30;99.90;;;;;;4199990;28;20215;-75
2023/05/23 09:52:53;;;;;;;11.17;7.77;;;17.20;99.90;;;;;;4201922;28;20231;-75
2023/05/23 09:54:55;;;;;;;10.97;7.83;;;17.10;99.90;;;;;;4204489;28;20299;-74
2023/05/23 09:57:01;;;;;;;13.57;9.20;;;17.10;99.90;;;;;;4203982;28;20232;-73
2023/05/23 09:59:07;;;;;;;12.27;8.30;;;17.10;99.90;;;;;;4197484;28;20260;-78
2023/05/23 10:01:11;;;;;;;12.03;7.70;;;17.00;99.90;;;;;;4202082;28;20214;-74
2023/05/23 10:03:13;;;;;;;10.00;7.10;;;17.00;99.90;;;;;;4202402;28;20305;-74
2023/05/23 10:05:30;;;;;;;13.20;7.97;;;16.90;99.90;;;;;;4201753;28;20211;-74
2023/05/23 10:07:33;;;;;;;10.53;7.27;;;16.90;99.90;;;;;;4200095;28;20240;-74
2023/05/23 10:09:40;;;;;;;10.23;7.10;;;16.80;99.90;;;;;;4201359;28;20215;-75
2023/05/23 10:12:12;;;;;;;8.27;6.30;;;16.80;99.90;;;;;;4201357;28;20320;-75
2023/05/23 10:14:16;;;;;;;9.57;6.60;;;16.80;99.90;;;;;;4195061;28;20245;-75
2023/05/23 10:16:23;;;;;;;10.10;7.37;;;16.80;99.90;;;;;;4203493;28;20205;-75
2023/05/23 10:18:26;;;;;;;10.93;7.20;;;16.80;99.90;;;;;;4200672;28;20262;-75
2023/05/23 10:20:31;;;;;;;10.63;6.50;;;16.90;99.90;;;;;;4202603;28;20208;-75
2023/05/23 10:22:35;;;;;;;8.53;6.33;;;16.90;99.90;;;;;;4200904;28;20233;-75
2023/05/23 10:24:37;;;;;;;8.23;6.30;;;16.90;99.90;;;;;;4202013;28;20225;-75
2023/05/23 10:26:39;;;;;;;12.30;6.57;;;16.90;99.90;;;;;;4203258;28;20309;-75
2023/05/23 10:28:42;;;;;;;9.30;6.57;;;17.00;99.90;;;;;;4202059;28;20250;-74
2023/05/23 10:30:46;;;;;;;7.77;5.90;;;17.00;99.90;;;;;;4201961;28;20336;-75
2023/05/23 10:32:49;;;;;;;8.03;5.97;;;17.00;99.90;;;;;;4200578;28;21057;-75